Alderton, Washington
Current Conditions -  °F | °C
As of 11:30 PM on Tuesday 21 Oct 2014 (Local Time) from KTCM Reporting Station
Light Rain Light Rain  
Wind Chill: 59°   Ceiling: Unl
Heat Index: 59°   Visibility: 10mi
Dew Point: 48°   Wind: 16mph
Humidity: 67%   Direction: 160°SSE
Pressure: 29.76"   Gusts: 22mph
Location:  47.1905°N, 122.328°W
Report Text: KTCM 220630Z AUTO 16014G19KT 10SM -RA FEW055 15/09 A2976 RMK AO2
Loading
Personal Weather Stations






























Interactive Weather Map
Tropical Storm Tracking
New forecast layout! Learn more

10-Day Weather Forecast

Advertisements
Track Severe Weather on mobile